Time;durP1;ratioP1;P1;durP2;ratioP2;P2;SDS_P1;SDS_P2;PMS_P1;PMS_P2;Temp;Humidity;BMP_temperature;BMP_pressure;BME280_temperature;BME280_humidity;BME280_pressure;Samples;Min_cycle;Max_cycle;Signal;HPM_P1;HPM_P2
2022/06/08 00:01:41;;;;;;;52.40;40.10;;;;;;;14.41;100.00;100999.84;4968172;28;20405;-80
2022/06/08 00:04:09;;;;;;;49.63;40.40;;;;;;;14.37;100.00;100996.63;4965403;28;20030;-80
2022/06/08 00:06:34;;;;;;;51.50;41.03;;;;;;;14.36;100.00;101000.22;4966001;28;20072;-80
2022/06/08 00:09:00;;;;;;;52.85;39.63;;;;;;;14.34;100.00;100996.88;4949809;28;20047;-80
2022/06/08 00:11:25;;;;;;;50.70;40.85;;;;;;;14.35;100.00;100987.97;4950110;29;20039;-80
2022/06/08 00:13:50;;;;;;;47.75;40.67;;;;;;;14.34;100.00;100988.94;4951296;29;20023;-80
2022/06/08 00:16:17;;;;;;;50.03;41.08;;;;;;;14.33;100.00;100984.63;4949533;29;20034;-80
2022/06/08 00:18:44;;;;;;;50.63;41.55;;;;;;;14.32;100.00;100982.94;4963954;28;20030;-80
2022/06/08 00:21:11;;;;;;;52.95;42.33;;;;;;;14.32;100.00;100985.59;4969380;28;20026;-80
2022/06/08 00:23:37;;;;;;;51.83;41.97;;;;;;;14.33;100.00;100974.03;4969906;28;20154;-80
2022/06/08 00:26:03;;;;;;;49.42;40.60;;;;;;;14.34;100.00;100975.72;4970689;28;20033;-80
2022/06/08 00:28:29;;;;;;;54.78;42.60;;;;;;;14.34;100.00;100975.72;4985637;28;20031;-80
2022/06/08 00:30:54;;;;;;;52.25;42.20;;;;;;;14.31;100.00;100973.31;4985210;28;20114;-80
2022/06/08 00:33:19;;;;;;;49.40;41.33;;;;;;;14.30;100.00;100969.00;4969311;28;20029;-80
2022/06/08 00:35:45;;;;;;;51.80;41.65;;;;;;;14.29;100.00;100966.50;4967690;28;20042;-80
2022/06/08 00:38:10;;;;;;;48.42;40.03;;;;;;;14.24;100.00;100964.25;4969062;28;20046;-80
2022/06/08 00:40:51;;;;;;;51.63;41.75;;;;;;;14.23;100.00;100967.88;4968794;28;20029;-79
2022/06/08 00:43:16;;;;;;;51.30;40.63;;;;;;;14.21;100.00;100958.41;4969465;28;20058;-79
2022/06/08 00:45:42;;;;;;;45.08;37.83;;;;;;;14.18;100.00;100961.31;4968336;28;20042;-82
2022/06/08 00:48:08;;;;;;;44.60;37.47;;;;;;;14.15;100.00;100958.94;4968229;28;20023;-80
2022/06/08 00:50:40;;;;;;;47.25;39.15;;;;;;;14.15;100.00;100958.94;4967711;28;20027;-79
2022/06/08 00:53:06;;;;;;;48.80;39.07;;;;;;;14.11;100.00;100947.78;4968864;28;20037;-79
2022/06/08 00:55:36;;;;;;;48.33;39.20;;;;;;;14.11;100.00;100947.78;4969512;28;20051;-81
2022/06/08 00:58:13;;;;;;;49.33;38.85;;;;;;;14.04;100.00;100949.28;4973655;28;20026;-80
2022/06/08 01:00:40;;;;;;;48.65;38.67;;;;;;;14.04;100.00;100947.50;4971282;28;20081;-80
2022/06/08 01:03:10;;;;;;;47.50;38.05;;;;;;;14.00;100.00;100937.28;4988149;28;20027;-80
2022/06/08 01:05:40;;;;;;;45.75;38.00;;;;;;;13.98;100.00;100937.41;4955848;28;20482;-80
2022/06/08 01:08:28;;;;;;;46.42;38.15;;;;;;;14.00;100.00;100939.91;4952309;29;20049;-80
2022/06/08 01:10:57;;;;;;;46.63;38.20;;;;;;;13.91;100.00;100930.97;4940561;28;20386;-80
2022/06/08 01:13:26;;;;;;;45.38;37.97;;;;;;;13.88;100.00;100935.69;4968003;28;20133;-80
2022/06/08 01:15:51;;;;;;;46.08;36.75;;;;;;;13.85;100.00;100925.38;4954420;28;20023;-80
2022/06/08 01:18:17;;;;;;;49.53;37.28;;;;;;;13.82;100.00;100921.19;4964155;28;20369;-80
2022/06/08 01:20:58;;;;;;;45.53;36.08;;;;;;;13.82;100.00;100912.44;4971534;28;20019;-80
2022/06/08 01:23:24;;;;;;;45.45;35.90;;;;;;;13.74;100.00;100913.94;4972647;28;20053;-80
2022/06/08 01:26:13;;;;;;;44.45;36.35;;;;;;;13.77;100.00;100905.75;4973448;28;20024;-80
2022/06/08 01:28:53;;;;;;;46.38;36.90;;;;;;;13.73;100.00;100906.97;4973443;28;20054;-80
2022/06/08 01:31:38;;;;;;;44.15;35.67;;;;;;;13.70;100.00;100896.66;4972310;28;20406;-80
2022/06/08 01:34:25;;;;;;;49.22;37.08;;;;;;;13.65;100.00;100896.22;4988408;28;20026;-80
2022/06/08 01:37:15;;;;;;;46.33;36.63;;;;;;;13.69;100.00;100897.63;4973090;28;20054;-81
2022/06/08 01:39:54;;;;;;;50.97;37.25;;;;;;;13.68;100.00;100887.19;4971754;28;20030;-80
2022/06/08 01:42:37;;;;;;;48.55;37.28;;;;;;;13.64;100.00;100891.91;4970724;28;20033;-81
2022/06/08 01:48:36;;;;;;;45.83;35.95;;;;;;;13.67;100.00;100882.88;4971492;28;20050;-80
2022/06/08 01:51:20;;;;;;;42.63;34.08;;;;;;;13.66;100.00;100882.03;4972543;28;20061;-80
2022/06/08 01:54:02;;;;;;;43.28;34.10;;;;;;;13.61;100.00;100871.03;4971478;28;20109;-80
2022/06/08 01:56:46;;;;;;;43.05;31.45;;;;;;;13.63;100.00;100873.53;4986250;28;20035;-80
2022/06/08 01:59:29;;;;;;;38.75;31.73;;;;;;;13.60;100.00;100866.66;4986993;28;20031;-80
2022/06/08 02:02:08;;;;;;;39.08;30.75;;;;;;;13.60;100.00;100864.03;4955672;28;20053;-80
2022/06/08 02:04:46;;;;;;;39.38;29.85;;;;;;;13.56;100.00;100862.63;4958426;28;20358;-80
2022/06/08 02:07:26;;;;;;;34.58;28.48;;;;;;;13.56;100.00;100861.78;4970036;28;20035;-80
2022/06/08 02:10:24;;;;;;;34.60;27.88;;;;;;;13.57;100.00;100844.94;4985745;28;20042;-80
2022/06/08 02:12:58;;;;;;;36.03;28.35;;;;;;;13.52;100.00;100845.34;4954985;28;20433;-80
2022/06/08 02:15:33;;;;;;;38.08;27.15;;;;;;;13.51;100.00;100843.69;4951181;29;20059;-80
2022/06/08 02:18:04;;;;;;;32.20;26.20;;;;;;;13.50;100.00;100836.72;4958670;28;20027;-80
2022/06/08 02:20:41;;;;;;;33.30;26.60;;;;;;;13.49;100.00;100830.59;4987422;28;20049;-80
2022/06/08 02:23:12;;;;;;;34.45;25.25;;;;;;;13.46;100.00;100827.38;4971907;28;20509;-80
2022/06/08 02:25:46;;;;;;;34.40;25.58;;;;;;;13.43;100.00;100825.00;4972568;28;20031;-80
2022/06/08 02:28:33;;;;;;;32.15;25.27;;;;;;;13.42;100.00;100824.16;4972789;28;20374;-80
2022/06/08 02:31:19;;;;;;;32.75;24.75;;;;;;;13.39;100.00;100815.66;4971984;28;20027;-81
2022/06/08 02:36:45;;;;;;;31.70;23.38;;;;;;;13.34;100.00;100817.88;4971716;28;20130;-80
2022/06/08 02:39:16;;;;;;;31.10;24.13;;;;;;;13.32;100.00;100814.53;4971143;28;20503;-79
2022/06/08 02:41:44;;;;;;;33.58;23.90;;;;;;;13.31;100.00;100813.69;4972032;28;20030;-80
2022/06/08 02:44:16;;;;;;;34.25;23.73;;;;;;;13.28;100.00;100803.41;4970438;28;20027;-79
2022/06/08 02:47:04;;;;;;;28.42;23.27;;;;;;;13.29;100.00;100805.06;4970399;28;20113;-80
2022/06/08 02:49:32;;;;;;;29.25;23.25;;;;;;;13.27;100.00;100806.16;4970099;28;20485;-80
2022/06/08 02:52:03;;;;;;;28.88;23.15;;;;;;;13.22;100.00;100797.81;4985464;28;20396;-79
2022/06/08 02:54:32;;;;;;;29.58;23.45;;;;;;;13.22;100.00;100796.00;4970484;28;20022;-80
2022/06/08 02:57:05;;;;;;;29.33;22.67;;;;;;;13.20;100.00;100797.06;4971186;28;20082;-80
2022/06/08 02:59:49;;;;;;;29.15;22.10;;;;;;;13.21;100.00;100788.16;4969951;28;20477;-81
2022/06/08 03:02:21;;;;;;;27.88;22.25;;;;;;;13.18;100.00;100792.75;4970996;28;20084;-80
2022/06/08 03:04:58;;;;;;;24.83;21.30;;;;;;;13.17;100.00;100788.44;4960622;28;20043;-80
2022/06/08 03:07:32;;;;;;;25.90;20.52;;;;;;;13.15;100.00;100785.06;4951454;29;20024;-80
2022/06/08 03:10:01;;;;;;;25.25;20.02;;;;;;;13.13;100.00;100789.63;4951800;28;20107;-80
2022/06/08 03:12:33;;;;;;;25.95;20.50;;;;;;;13.14;100.00;100783.38;4949375;28;20055;-80
2022/06/08 03:15:00;;;;;;;24.52;19.20;;;;;;;13.13;100.00;100786.16;4951740;28;20032;-80
2022/06/08 03:17:30;;;;;;;25.40;18.77;;;;;;;13.12;100.00;100790.59;4954271;28;20049;-80
2022/06/08 03:19:56;;;;;;;20.40;18.17;;;;;;;13.11;100.00;100786.28;4970139;28;20077;-80
2022/06/08 03:22:21;;;;;;;22.95;17.83;;;;;;;13.12;100.00;100780.03;4985137;28;20035;-80
2022/06/08 03:24:47;;;;;;;21.73;17.65;;;;;;;13.11;100.00;100775.72;4968740;28;20026;-80
2022/06/08 03:27:13;;;;;;;23.42;17.83;;;;;;;13.12;100.00;100785.31;4969879;28;20438;-80
2022/06/08 03:29:38;;;;;;;22.50;16.98;;;;;;;13.12;100.00;100777.41;4970149;28;20027;-79
2022/06/08 03:32:05;;;;;;;20.77;17.40;;;;;;;13.11;100.00;100778.38;4971517;28;20041;-79
2022/06/08 03:34:31;;;;;;;22.27;16.88;;;;;;;13.09;100.00;100785.59;4969213;28;20076;-79
2022/06/08 03:36:56;;;;;;;25.33;16.80;;;;;;;13.11;100.00;100785.47;4971705;28;20388;-79
2022/06/08 03:39:22;;;;;;;20.05;17.23;;;;;;;13.14;100.00;100785.19;4971536;28;20486;-79
2022/06/08 03:41:47;;;;;;;20.80;16.40;;;;;;;13.13;100.00;100784.34;4985000;28;20035;-79
2022/06/08 03:44:13;;;;;;;18.77;15.63;;;;;;;13.15;100.00;100785.06;4969993;28;20019;-79
2022/06/08 03:46:56;;;;;;;18.02;15.18;;;;;;;13.17;100.00;100788.44;4971045;28;20030;-80
2022/06/08 03:49:22;;;;;;;17.95;15.57;;;;;;;13.22;100.00;100781.94;4971419;28;20239;-80
2022/06/08 03:51:49;;;;;;;17.48;15.50;;;;;;;13.24;100.00;100782.66;4969242;28;20023;-80
2022/06/08 03:54:19;;;;;;;17.50;14.65;;;;;;;13.26;100.00;100780.72;4969179;28;20035;-80
2022/06/08 03:56:50;;;;;;;16.15;14.45;;;;;;;13.27;100.00;100787.66;4970975;28;20023;-80
2022/06/08 03:59:16;;;;;;;19.30;14.10;;;;;;;13.30;100.00;100785.59;4984934;28;20089;-80
2022/06/08 04:01:42;;;;;;;18.33;14.93;;;;;;;13.32;100.00;100782.81;4957898;28;20417;-80
2022/06/08 04:04:08;;;;;;;17.60;13.85;;;;;;;13.35;100.00;100774.63;4968092;28;20073;-80
2022/06/08 04:06:33;;;;;;;16.55;12.85;;;;;;;13.38;100.00;100779.66;4966840;28;20424;-80
2022/06/08 04:08:59;;;;;;;17.42;13.23;;;;;;;13.39;100.00;100770.75;4966601;28;20047;-80
2022/06/08 04:11:24;;;;;;;14.30;12.80;;;;;;;13.42;100.00;100767.84;4965314;28;20507;-80
2022/06/08 04:13:49;;;;;;;19.52;12.73;;;;;;;13.47;100.00;100773.56;4949722;28;20023;-80
2022/06/08 04:16:19;;;;;;;15.63;12.52;;;;;;;13.47;100.00;100769.09;4950083;28;20553;-80
2022/06/08 04:18:44;;;;;;;17.17;12.57;;;;;;;13.50;100.00;100757.41;4963193;28;20027;-80
2022/06/08 04:21:12;;;;;;;15.82;12.23;;;;;;;13.53;100.00;100762.44;4968284;28;20085;-80
2022/06/08 04:23:41;;;;;;;14.10;11.63;;;;;;;13.58;100.00;100762.88;4967248;28;20027;-80
2022/06/08 04:26:07;;;;;;;14.10;11.50;;;;;;;13.59;100.00;100750.47;4969829;28;20102;-80
2022/06/08 04:28:34;;;;;;;12.93;11.50;;;;;;;13.59;100.00;100756.59;4969507;28;20172;-80
2022/06/08 04:31:00;;;;;;;12.98;10.75;;;;;;;13.62;100.00;100766.09;4968972;28;20428;-80
2022/06/08 04:33:26;;;;;;;13.38;11.48;;;;;;;13.63;100.00;100762.50;4968316;28;20029;-80
2022/06/08 04:35:51;;;;;;;12.07;10.77;;;;;;;13.68;100.00;100761.09;4969098;28;20478;-80
2022/06/08 04:38:17;;;;;;;12.23;11.02;;;;;;;13.71;100.00;100755.53;4968922;28;20110;-80
2022/06/08 04:40:45;;;;;;;11.88;10.30;;;;;;;13.73;100.00;100763.34;4968992;28;20125;-80
2022/06/08 04:43:10;;;;;;;14.85;10.55;;;;;;;13.77;100.00;100754.16;4970197;28;20019;-80
2022/06/08 04:45:37;;;;;;;12.77;10.40;;;;;;;13.78;100.00;100746.09;4970272;28;20477;-80
2022/06/08 04:48:04;;;;;;;13.98;10.10;;;;;;;13.82;100.00;100746.66;4985991;28;20030;-80
2022/06/08 04:50:30;;;;;;;11.15;9.85;;;;;;;13.87;100.00;100738.31;4984249;28;20030;-80
2022/06/08 04:52:55;;;;;;;12.77;9.75;;;;;;;13.95;100.00;100747.22;4969213;28;20038;-80
2022/06/08 04:55:22;;;;;;;11.32;8.93;;;;;;;14.00;100.00;100730.94;4970511;28;20051;-80
2022/06/08 04:57:48;;;;;;;10.27;9.15;;;;;;;14.04;100.00;100729.72;4968279;28;20102;-80
2022/06/08 05:00:17;;;;;;;9.75;8.73;;;;;;;14.07;100.00;100729.44;4970184;28;20110;-80
2022/06/08 05:02:49;;;;;;;11.48;8.00;;;;;;;14.13;100.00;100734.16;4968657;28;20185;-80
2022/06/08 05:05:22;;;;;;;9.55;8.18;;;;;;;14.17;100.00;100735.56;4956755;28;20050;-80
2022/06/08 05:07:48;;;;;;;;;;;;;;;14.26;100.00;100737.34;4951223;28;20058;-80
2022/06/08 05:10:14;;;;;;;8.52;7.30;;;;;;;14.22;100.00;100738.59;4965837;28;20316;-80
2022/06/08 05:12:40;;;;;;;9.85;7.85;;;;;;;14.23;100.00;100732.34;4947366;28;20027;-80
2022/06/08 05:15:09;;;;;;;9.57;8.05;;;;;;;14.26;100.00;100723.28;4950170;28;20035;-80
2022/06/08 05:17:35;;;;;;;10.43;8.15;;;;;;;14.26;100.00;100712.69;4953506;28;20030;-80
2022/06/08 05:20:02;;;;;;;8.52;7.68;;;;;;;14.31;100.00;100715.75;4969070;28;20685;-80
2022/06/08 05:22:31;;;;;;;8.73;7.20;;;;;;;14.35;100.00;100711.84;4969438;28;20029;-80
2022/06/08 05:24:57;;;;;;;10.55;7.93;;;;;;;14.39;100.00;100708.78;4969341;28;20030;-80
2022/06/08 05:27:22;;;;;;;8.68;7.78;;;;;;;14.44;100.00;100694.34;4968784;28;20027;-81
2022/06/08 05:29:48;;;;;;;8.80;7.05;;;;;;;14.47;100.00;100694.06;4968378;28;20037;-80
2022/06/08 05:32:13;;;;;;;11.15;7.60;;;;;;;14.52;100.00;100702.41;4969236;28;20030;-80
2022/06/08 05:34:38;;;;;;;8.77;7.15;;;;;;;14.55;100.00;100696.81;4966601;28;20029;-80
2022/06/08 05:37:04;;;;;;;15.23;7.70;;;;;;;14.58;100.00;100696.53;4968231;28;20019;-80
2022/06/08 05:39:29;;;;;;;12.25;8.02;;;;;;;14.60;100.00;100683.97;4966564;28;20109;-80
2022/06/08 05:41:55;;;;;;;8.68;7.00;;;;;;;14.64;100.00;100688.00;4967948;28;20042;-80
2022/06/08 05:44:20;;;;;;;9.70;7.70;;;;;;;14.65;100.00;100687.88;4970975;28;20030;-80
2022/06/08 05:46:50;;;;;;;9.95;7.85;;;;;;;14.67;100.00;100670.00;4971574;28;20037;-80
2022/06/08 05:49:16;;;;;;;12.30;7.65;;;;;;;14.72;100.00;100672.22;4972401;28;20042;-80
2022/06/08 05:51:42;;;;;;;8.10;7.28;;;;;;;14.73;100.00;100668.59;4970373;28;20412;-80
2022/06/08 05:54:07;;;;;;;8.45;7.40;;;;;;;14.78;100.00;100665.50;4971950;28;20109;-80
2022/06/08 05:56:33;;;;;;;11.55;7.22;;;;;;;14.85;100.00;100664.81;4971977;28;20027;-80
2022/06/08 05:58:59;;;;;;;8.00;7.20;;;;;;;14.93;100.00;100654.31;4972483;28;20035;-80
2022/06/08 06:01:24;;;;;;;8.77;7.15;;;;;;;14.98;100.00;100653.88;4972410;28;20105;-80
2022/06/08 06:03:53;;;;;;;10.85;6.95;;;;;;;15.03;100.00;100657.75;4969872;28;20351;-80
2022/06/08 06:06:18;;;;;;;8.55;6.70;;;;;;;15.07;100.00;100655.63;4953964;28;20015;-80
2022/06/08 06:08:45;;;;;;;9.00;7.07;;;;;;;15.08;100.00;100653.81;4951540;29;20086;-80
2022/06/08 06:11:13;;;;;;;10.38;6.68;;;;;;;15.13;100.00;100651.56;4953495;28;20465;-80
2022/06/08 06:13:38;;;;;;;10.27;6.90;;;;;;;15.14;100.00;100651.41;4953406;28;20023;-80
2022/06/08 06:16:04;;;;;;;12.32;7.00;;;;;;;15.17;100.00;100660.88;4952200;29;20074;-80
2022/06/08 06:18:29;;;;;;;9.90;7.30;;;;;;;15.20;100.00;100663.22;4962952;28;20436;-80
2022/06/08 06:20:55;;;;;;;8.07;6.75;;;;;;;15.25;100.00;100671.59;4972843;28;20022;-80
2022/06/08 06:23:21;;;;;;;6.95;6.25;;;;;;;15.27;100.00;100664.34;4971299;28;20409;-81
2022/06/08 06:25:46;;;;;;;9.52;6.35;;;;;;;15.25;100.00;100661.84;4971236;28;20022;-80
2022/06/08 06:28:11;;;;;;;11.48;6.22;;;;;;;15.28;100.00;100668.66;4971992;28;20022;-80
2022/06/08 06:30:37;;;;;;;7.22;6.53;;;;;;;15.29;100.00;100671.16;4969168;28;20054;-80
2022/06/08 06:33:02;;;;;;;14.73;7.63;;;;;;;15.33;100.00;100666.41;4971826;28;20081;-80
2022/06/08 06:35:31;;;;;;;7.93;5.97;;;;;;;15.35;100.00;100667.06;4971380;28;20058;-80
2022/06/08 06:37:56;;;;;;;10.45;6.63;;;;;;;15.37;100.00;100662.47;4986068;28;20023;-80
2022/06/08 06:40:22;;;;;;;11.10;6.15;;;;;;;15.43;100.00;100666.31;4971717;28;20022;-80
2022/06/08 06:42:48;;;;;;;7.60;6.32;;;;;;;15.48;99.70;100659.59;4970277;28;20019;-80
2022/06/08 06:45:14;;;;;;;8.07;6.10;;;;;;;15.56;99.91;100661.50;4969794;28;20054;-80
2022/06/08 06:47:40;;;;;;;8.55;5.72;;;;;;;15.68;99.46;100659.50;4969595;28;20015;-80
2022/06/08 06:50:08;;;;;;;9.18;6.07;;;;;;;15.85;99.84;100659.50;4970733;28;20036;-80
2022/06/08 06:52:34;;;;;;;7.35;6.20;;;;;;;15.98;99.18;100644.00;4971059;28;20082;-80
2022/06/08 06:55:00;;;;;;;9.57;6.30;;;;;;;16.13;99.42;100646.97;4969518;28;20129;-80
2022/06/08 06:57:25;;;;;;;10.48;5.32;;;;;;;16.32;97.44;100637.97;4969273;28;20036;-80
2022/06/08 06:59:50;;;;;;;8.65;5.13;;;;;;;16.47;95.47;100640.91;4970521;28;20042;-80
2022/06/08 07:02:20;;;;;;;7.63;5.05;;;;;;;16.62;94.93;100644.63;4971532;28;20037;-80
2022/06/08 07:04:47;;;;;;;8.63;5.25;;;;;;;16.67;93.52;100647.69;4976560;28;20426;-80
2022/06/08 07:07:13;;;;;;;8.70;4.32;;;;;;;16.75;94.24;100633.59;4952890;28;20019;-80
2022/06/08 07:09:38;;;;;;;7.78;4.25;;;;;;;16.95;93.35;100640.34;4952396;28;20445;-80
2022/06/08 07:12:06;;;;;;;6.32;3.95;;;;;;;17.17;91.47;100639.75;4952432;28;20035;-80
2022/06/08 07:14:32;;;;;;;7.32;4.03;;;;;;;17.43;90.88;100634.34;4952183;28;20030;-80
2022/06/08 07:16:58;;;;;;;6.85;3.60;;;;;;;17.61;87.45;100641.38;4952794;28;20375;-80
2022/06/08 07:19:23;;;;;;;5.32;3.47;;;;;;;17.74;88.05;100636.44;4970075;28;20026;-80
2022/06/08 07:21:50;;;;;;;7.78;3.10;;;;;;;17.80;87.58;100638.44;4970113;28;20109;-79
2022/06/08 07:24:19;;;;;;;6.93;3.20;;;;;;;17.97;86.92;100632.09;4970723;28;20143;-79
2022/06/08 07:26:45;;;;;;;5.90;3.35;;;;;;;17.99;84.21;100630.09;4970625;28;20023;-79
2022/06/08 07:29:10;;;;;;;5.38;3.53;;;;;;;18.07;86.49;100632.78;4971862;28;20045;-79
2022/06/08 07:31:35;;;;;;;10.25;3.47;;;;;;;18.06;83.95;100631.13;4985057;28;20053;-79
2022/06/08 07:34:01;;;;;;;7.03;3.15;;;;;;;18.11;83.77;100619.97;4970527;28;20034;-79
2022/06/08 07:36:27;;;;;;;9.07;2.95;;;;;;;18.16;84.85;100626.47;4970489;28;20022;-79
2022/06/08 07:38:52;;;;;;;7.82;3.20;;;;;;;18.26;83.00;100614.78;4968953;28;20049;-79
2022/06/08 07:41:18;;;;;;;6.07;3.03;;;;;;;18.33;84.52;100618.44;4969839;28;20027;-80
2022/06/08 07:43:43;;;;;;;4.68;2.83;;;;;;;18.44;82.08;100613.59;4969897;28;20030;-80
2022/06/08 07:46:09;;;;;;;9.65;3.28;;;;;;;18.56;80.16;100618.56;4968520;28;20534;-80
2022/06/08 07:51:18;;;;;;;8.40;3.17;;;;;;;18.79;79.62;100619.50;4970433;28;20089;-80
2022/06/08 07:53:44;;;;;;;8.85;3.10;;;;;;;18.78;78.44;100620.50;4969307;28;20027;-79
2022/06/08 07:56:09;;;;;;;7.25;3.13;;;;;;;18.75;80.14;100623.53;4968794;28;20138;-80
2022/06/08 07:58:36;;;;;;;7.28;2.97;;;;;;;18.62;77.06;100625.91;4969538;28;20034;-80
2022/06/08 08:01:01;;;;;;;8.07;3.30;;;;;;;18.51;78.97;100629.75;4968434;28;20053;-80
2022/06/08 08:03:27;;;;;;;8.50;3.50;;;;;;;18.40;79.43;100624.75;4968942;28;20133;-80
2022/06/08 08:05:52;;;;;;;8.95;3.72;;;;;;;18.26;79.55;100628.94;4950871;28;20163;-80
2022/06/08 08:08:19;;;;;;;6.55;2.97;;;;;;;18.21;80.59;100625.13;4950307;28;20059;-80
2022/06/08 08:10:45;;;;;;;8.73;3.78;;;;;;;18.20;81.52;100626.13;4951409;28;20023;-80
2022/06/08 08:13:11;;;;;;;8.88;3.67;;;;;;;18.15;80.74;100622.13;4950400;28;20023;-80
2022/06/08 08:15:37;;;;;;;7.78;3.42;;;;;;;18.04;80.16;100633.13;4949634;29;20551;-81
2022/06/08 08:18:03;;;;;;;7.13;3.38;;;;;;;17.96;80.87;100626.94;4959397;28;20046;-80
2022/06/08 08:20:30;;;;;;;8.57;3.30;;;;;;;17.92;81.02;100633.59;4970730;28;20054;-80
2022/06/08 08:22:57;;;;;;;9.07;3.53;;;;;;;17.84;81.35;100632.63;4970553;28;20022;-80
2022/06/08 08:25:22;;;;;;;5.78;3.35;;;;;;;17.83;82.08;100632.78;4971068;28;20464;-80
2022/06/08 08:27:48;;;;;;;7.55;3.10;;;;;;;17.76;82.12;100632.63;4969139;28;20031;-80
2022/06/08 08:30:17;;;;;;;11.85;3.90;;;;;;;17.71;82.93;100634.94;4985221;28;20035;-80
2022/06/08 08:32:42;;;;;;;7.50;3.63;;;;;;;17.78;82.90;100622.63;4970364;28;20023;-80
2022/06/08 08:35:08;;;;;;;11.20;3.83;;;;;;;17.83;83.27;100630.13;4969807;28;20608;-80
2022/06/08 08:37:37;;;;;;;10.35;3.55;;;;;;;17.86;83.16;100624.47;4967976;28;20034;-80
2022/06/08 08:40:05;;;;;;;7.47;2.97;;;;;;;17.88;84.27;100625.13;4970116;28;20509;-81
2022/06/08 08:42:30;;;;;;;9.82;3.53;;;;;;;17.85;80.77;100625.47;4968680;28;20106;-81
2022/06/08 08:45:11;;;;;;;7.53;3.35;;;;;;;17.82;82.26;100633.78;4968512;28;20197;-81
2022/06/08 08:47:41;;;;;;;11.18;3.97;;;;;;;17.75;82.38;100633.63;4968708;28;20109;-81
2022/06/08 08:50:25;;;;;;;8.75;3.80;;;;;;;17.76;82.93;100623.81;4967951;28;20030;-80
2022/06/08 08:53:09;;;;;;;11.65;4.07;;;;;;;17.75;81.67;100630.94;4969264;28;20503;-80
2022/06/08 08:55:48;;;;;;;9.32;3.78;;;;;;;17.75;82.74;100630.13;4967694;28;20054;-81
2022/06/08 08:58:17;;;;;;;10.57;3.58;;;;;;;17.73;81.79;100630.28;4983831;28;20027;-80
2022/06/08 09:00:49;;;;;;;8.00;3.20;;;;;;;17.67;82.02;100628.28;4983809;28;20503;-80
2022/06/08 09:03:20;;;;;;;8.30;3.38;;;;;;;17.60;81.19;100631.72;4969646;28;20023;-80
2022/06/08 09:05:48;;;;;;;10.63;3.60;;;;;;;17.57;81.61;100635.53;4951356;28;20023;-80
2022/06/08 09:08:15;;;;;;;8.32;3.20;;;;;;;17.52;82.42;100635.19;4950157;28;20039;-80
2022/06/08 09:10:41;;;;;;;7.05;2.92;;;;;;;17.53;82.53;100635.03;4948051;29;20058;-80
2022/06/08 09:13:12;;;;;;;9.60;3.40;;;;;;;17.49;81.89;100632.88;4950157;28;20031;-80
2022/06/08 09:15:54;;;;;;;8.20;2.65;;;;;;;17.40;82.87;100637.34;4949504;28;20437;-80
2022/06/08 09:18:41;;;;;;;7.55;3.00;;;;;;;17.35;83.93;100636.16;4961193;28;20109;-81
2022/06/08 09:21:21;;;;;;;8.98;3.85;;;;;;;17.30;84.95;100634.00;4973391;28;20045;-81
2022/06/08 09:23:50;;;;;;;8.65;3.10;;;;;;;17.27;85.31;100634.31;4971586;28;20037;-81
2022/06/08 09:26:31;;;;;;;13.10;3.53;;;;;;;17.23;85.92;100628.50;4972075;28;20452;-81
2022/06/08 09:29:13;;;;;;;10.00;3.50;;;;;;;17.18;87.10;100624.63;4972712;28;20031;-81
2022/06/08 09:31:40;;;;;;;8.65;3.65;;;;;;;17.16;87.67;100638.09;4971608;28;20042;-80
2022/06/08 09:34:22;;;;;;;8.57;3.85;;;;;;;17.09;87.75;100631.75;4973976;28;20027;-80
2022/06/08 09:37:11;;;;;;;8.27;4.13;;;;;;;17.09;88.81;100637.06;4973309;28;20035;-81
2022/06/08 09:39:37;;;;;;;10.07;4.25;;;;;;;17.04;88.77;100635.91;4972616;28;20276;-81
2022/06/08 09:42:30;;;;;;;8.50;3.47;;;;;;;17.07;89.60;100644.38;4972795;28;20022;-81
2022/06/08 09:45:12;;;;;;;9.18;3.13;;;;;;;17.00;88.16;100642.53;4973990;28;20038;-81
2022/06/08 09:53:38;;;;;;;12.60;3.58;;;;;;;16.83;90.05;100642.47;4972863;28;20712;-81
2022/06/08 09:56:30;;;;;;;11.85;3.78;;;;;;;16.76;91.16;100640.56;4973656;28;20023;-79
2022/06/08 09:59:08;;;;;;;11.50;3.10;;;;;;;16.62;90.72;100641.97;4973186;28;20030;-80
2022/06/08 10:01:46;;;;;;;10.48;3.67;;;;;;;16.56;92.93;100639.94;4971414;28;20405;-80
2022/06/08 10:04:17;;;;;;;7.93;3.00;;;;;;;16.45;92.70;100637.56;4967849;28;20082;-80
2022/06/08 10:07:17;;;;;;;9.13;3.20;;;;;;;16.38;92.36;100641.81;4952123;28;20085;-80
2022/06/08 10:10:03;;;;;;;11.07;3.20;;;;;;;16.30;92.52;100646.09;4950535;29;20050;-80
2022/06/08 10:12:37;;;;;;;10.23;3.63;;;;;;;16.20;93.15;100637.38;4951026;28;20438;-80
2022/06/08 10:15:24;;;;;;;9.52;3.65;;;;;;;16.20;94.51;100645.34;4950577;29;20078;-81
2022/06/08 10:18:17;;;;;;;10.93;3.47;;;;;;;16.11;94.07;100640.16;4957798;28;20432;-81
2022/06/08 10:20:55;;;;;;;11.35;4.20;;;;;;;16.04;96.05;100644.41;4971548;28;20050;-81
2022/06/08 10:23:36;;;;;;;9.70;3.85;;;;;;;15.96;96.55;100637.19;4971936;28;20496;-81
2022/06/08 10:26:08;;;;;;;9.57;4.03;;;;;;;15.93;97.72;100640.16;4972190;28;20023;-81
2022/06/08 10:28:48;;;;;;;10.07;4.05;;;;;;;15.97;98.65;100638.84;4969890;28;20038;-81
2022/06/08 10:31:21;;;;;;;14.13;4.95;;;;;;;16.03;99.70;100638.28;4971730;28;20121;-80
2022/06/08 10:33:59;;;;;;;8.18;3.75;;;;;;;16.04;97.65;100641.75;4971208;28;20540;-80
2022/06/08 10:36:25;;;;;;;11.13;4.40;;;;;;;16.00;98.67;100638.53;4969690;28;20042;-81
2022/06/08 10:38:51;;;;;;;11.05;4.43;;;;;;;16.04;98.93;100626.66;4969798;28;20050;-80
2022/06/08 10:44:48;;;;;;;9.23;3.45;;;;;;;16.10;96.87;100633.16;4972368;28;20093;-81
2022/06/08 10:47:13;;;;;;;9.10;3.67;;;;;;;16.07;96.82;100634.31;4971376;28;20089;-80
2022/06/08 10:49:41;;;;;;;10.50;3.75;;;;;;;16.07;96.58;100629.00;4969883;28;20035;-83
2022/06/08 10:52:17;;;;;;;11.63;4.20;;;;;;;16.16;97.06;100632.53;4971322;28;20035;-83
2022/06/08 10:54:54;;;;;;;10.52;3.90;;;;;;;16.13;97.25;100627.56;4971866;28;20030;-81
2022/06/08 10:57:35;;;;;;;11.93;4.10;;;;;;;16.14;97.05;100624.75;4971646;28;20074;-81
2022/06/08 11:00:19;;;;;;;11.93;4.20;;;;;;;16.15;96.88;100628.22;4971195;28;20077;-81
2022/06/08 11:02:53;;;;;;;10.73;4.10;;;;;;;16.15;97.82;100621.09;4971865;28;20066;-81
2022/06/08 11:05:37;;;;;;;10.40;3.85;;;;;;;16.22;97.06;100631.94;4957932;28;20023;-81
2022/06/08 11:08:12;;;;;;;11.50;3.45;;;;;;;16.14;95.33;100622.09;4953025;28;20055;-82
2022/06/08 11:10:44;;;;;;;8.88;3.20;;;;;;;16.06;95.47;100611.41;4950216;28;20374;-82
2022/06/08 11:13:24;;;;;;;6.88;2.88;;;;;;;16.09;96.36;100608.44;4952689;28;20041;-82
2022/06/08 11:15:53;;;;;;;7.18;3.03;;;;;;;16.13;96.37;100612.47;4950985;28;20031;-82
2022/06/08 11:18:27;;;;;;;9.10;2.95;;;;;;;16.06;95.14;100608.75;4959954;28;20038;-81
2022/06/08 11:21:14;;;;;;;9.23;3.03;;;;;;;16.07;96.51;100605.13;4969119;28;20022;-82
2022/06/08 11:23:55;;;;;;;9.13;3.03;;;;;;;16.03;96.48;100593.16;4969055;28;20022;-83
2022/06/08 11:26:21;;;;;;;9.30;3.00;;;;;;;15.96;96.36;100595.56;4985089;28;20410;-82
2022/06/08 11:28:50;;;;;;;10.70;3.20;;;;;;;15.92;96.23;100596.03;4970280;28;20050;-82
2022/06/08 11:31:25;;;;;;;8.77;2.97;;;;;;;15.93;96.99;100587.91;4970175;28;20030;-83
2022/06/08 11:33:59;;;;;;;10.82;3.35;;;;;;;15.95;97.56;100593.06;4970146;28;20033;-83
2022/06/08 11:37:08;;;;;;;7.78;3.10;;;;;;;15.97;97.28;100586.63;4985262;28;20038;-83
2022/06/08 11:39:43;;;;;;;11.02;3.70;;;;;;;15.95;97.24;100579.78;4969517;28;20117;-83
2022/06/08 11:42:14;;;;;;;11.23;3.50;;;;;;;15.95;97.66;100571.84;4969465;28;20554;-83
2022/06/08 11:44:54;;;;;;;10.23;3.45;;;;;;;15.97;98.24;100575.16;4968400;28;20034;-83
2022/06/08 11:47:29;;;;;;;8.27;3.20;;;;;;;15.91;97.75;100570.47;4968610;28;20023;-83